createdAt,value
2018-10-07T00:01:33.803Z,26.47
2018-10-07T00:04:01.995Z,22.23
2018-10-07T00:06:30.258Z,21.13
2018-10-07T00:08:58.518Z,21.10
2018-10-07T00:11:26.739Z,24.17
2018-10-07T00:13:55.067Z,26.33
2018-10-07T00:16:23.267Z,24.83
2018-10-07T00:18:51.451Z,22.70
2018-10-07T00:21:20.009Z,25.97
2018-10-07T00:23:48.192Z,52.60
2018-10-07T00:26:16.614Z,94.50
2018-10-07T00:28:44.954Z,198.53
2018-10-07T00:31:13.166Z,131.13
2018-10-07T00:33:41.387Z,100.43
2018-10-07T00:36:09.728Z,63.93
2018-10-07T00:38:38.023Z,35.10
2018-10-07T00:41:06.353Z,34.10
2018-10-07T00:43:34.698Z,29.30
2018-10-07T00:46:02.998Z,29.23
2018-10-07T00:48:31.297Z,27.47
2018-10-07T00:50:59.645Z,26.50
2018-10-07T00:53:27.998Z,29.23
2018-10-07T00:55:56.236Z,24.93
2018-10-07T00:58:24.620Z,27.50
2018-10-07T01:00:52.837Z,26.40
2018-10-07T01:03:21.163Z,25.57
2018-10-07T01:05:49.419Z,22.37
2018-10-07T01:08:17.679Z,25.80
2018-10-07T01:10:45.884Z,23.57
2018-10-07T01:13:14.108Z,22.83
2018-10-07T01:15:42.495Z,21.67
2018-10-07T01:18:10.682Z,21.63
2018-10-07T01:20:38.997Z,22.00
2018-10-07T01:23:07.302Z,20.50
2018-10-07T01:25:35.693Z,21.77
2018-10-07T01:28:04.079Z,22.97
2018-10-07T01:30:32.401Z,22.73
2018-10-07T01:33:00.634Z,25.13
2018-10-07T01:35:29.058Z,25.83
2018-10-07T01:37:57.284Z,23.07
2018-10-07T01:40:25.553Z,25.47
2018-10-07T01:42:53.867Z,32.63
2018-10-07T01:45:22.085Z,27.37
2018-10-07T01:47:50.387Z,24.97
2018-10-07T01:50:18.703Z,25.20
2018-10-07T01:52:47.155Z,26.00
2018-10-07T01:55:15.473Z,25.73
2018-10-07T01:57:43.853Z,24.13
2018-10-07T02:00:12.088Z,20.70
2018-10-07T02:02:40.368Z,23.57
2018-10-07T02:05:08.807Z,23.13
2018-10-07T02:07:37.012Z,26.67
2018-10-07T02:10:05.319Z,26.37
2018-10-07T02:12:33.670Z,24.53
2018-10-07T02:15:01.950Z,24.60
2018-10-07T02:17:30.260Z,22.43
2018-10-07T02:19:58.582Z,24.10
2018-10-07T02:22:26.865Z,23.87
2018-10-07T02:24:55.150Z,26.27
2018-10-07T02:27:23.464Z,25.87
2018-10-07T02:29:51.787Z,33.80
2018-10-07T02:32:20.091Z,40.03
2018-10-07T02:34:48.365Z,77.37
2018-10-07T02:37:16.600Z,79.70
2018-10-07T02:39:44.925Z,33.73
2018-10-07T02:42:13.155Z,33.53
2018-10-07T02:44:41.355Z,27.23
2018-10-07T02:47:09.648Z,25.63
2018-10-07T02:49:37.996Z,24.40
2018-10-07T02:52:06.717Z,24.53
2018-10-07T02:54:35.003Z,26.57
2018-10-07T02:57:03.335Z,25.53
2018-10-07T02:59:31.639Z,24.33
2018-10-07T03:01:59.938Z,22.97
2018-10-07T03:04:28.269Z,23.37
2018-10-07T03:06:56.573Z,26.07
2018-10-07T03:09:24.835Z,23.77
2018-10-07T03:11:53.156Z,24.90
2018-10-07T03:14:21.469Z,23.47
2018-10-07T03:16:49.725Z,21.10
2018-10-07T03:19:18.123Z,23.03
2018-10-07T03:21:46.420Z,23.77
2018-10-07T03:24:14.652Z,27.10
2018-10-07T03:26:42.897Z,30.83
2018-10-07T03:29:11.108Z,32.43
2018-10-07T03:31:39.350Z,72.43
2018-10-07T03:34:08.288Z,26.33
2018-10-07T03:36:36.532Z,31.10
2018-10-07T03:39:06.216Z,32.03
2018-10-07T03:41:34.546Z,32.43
2018-10-07T03:44:02.862Z,30.87
2018-10-07T03:46:31.170Z,31.07
2018-10-07T03:48:59.429Z,30.77
2018-10-07T03:51:27.642Z,30.77
2018-10-07T03:53:56.007Z,36.03
2018-10-07T03:56:24.326Z,37.23
2018-10-07T03:58:52.528Z,32.23
2018-10-07T04:01:20.844Z,27.57
2018-10-07T04:03:49.164Z,29.83
2018-10-07T04:06:17.373Z,31.13
2018-10-07T04:08:45.573Z,26.93
2018-10-07T04:11:13.841Z,25.47
2018-10-07T04:13:42.117Z,28.13
2018-10-07T04:16:10.434Z,27.70
2018-10-07T04:18:39.036Z,24.20
2018-10-07T04:21:07.236Z,25.23
2018-10-07T04:23:35.445Z,24.70
2018-10-07T04:26:03.827Z,21.97
2018-10-07T04:28:32.144Z,22.10
2018-10-07T04:31:00.448Z,22.23
2018-10-07T04:33:29.364Z,24.63
2018-10-07T04:35:57.698Z,22.07
2018-10-07T04:38:26.024Z,25.70
2018-10-07T04:40:54.396Z,24.77
2018-10-07T04:43:22.725Z,25.57
2018-10-07T04:45:51.070Z,23.00
2018-10-07T04:48:19.423Z,22.87
2018-10-07T04:50:48.126Z,21.20
2018-10-07T04:53:16.329Z,23.50
2018-10-07T04:55:44.631Z,22.00
2018-10-07T04:58:13.104Z,24.67
2018-10-07T05:00:41.304Z,25.13
2018-10-07T05:03:09.622Z,25.07
2018-10-07T05:05:38.001Z,24.83
2018-10-07T05:08:06.887Z,26.23
2018-10-07T05:10:40.278Z,27.83
2018-10-07T05:13:09.148Z,26.33
2018-10-07T05:15:45.354Z,24.00
2018-10-07T05:18:13.746Z,25.40
2018-10-07T05:20:42.030Z,27.30
2018-10-07T05:23:10.316Z,24.93
2018-10-07T05:25:38.607Z,31.53
2018-10-07T05:28:06.789Z,27.40
2018-10-07T05:30:35.364Z,26.57
2018-10-07T05:33:03.625Z,27.10
2018-10-07T05:35:31.826Z,24.87
2018-10-07T05:38:00.599Z,23.43
2018-10-07T05:40:28.940Z,21.67
2018-10-07T05:42:57.674Z,30.40
2018-10-07T05:45:26.386Z,29.00
2018-10-07T05:47:55.456Z,32.37
2018-10-07T05:50:24.167Z,26.40
2018-10-07T05:52:52.930Z,27.90
2018-10-07T05:55:21.672Z,23.73
2018-10-07T05:57:51.572Z,23.27
2018-10-07T06:00:20.595Z,26.37
2018-10-07T06:02:49.466Z,29.87
2018-10-07T06:05:17.665Z,25.33
2018-10-07T06:07:45.890Z,25.00
2018-10-07T06:10:14.176Z,28.47
2018-10-07T06:12:42.416Z,28.73
2018-10-07T06:15:15.017Z,28.80
2018-10-07T06:17:43.286Z,33.27
2018-10-07T06:20:11.914Z,27.33
2018-10-07T06:22:40.212Z,28.37
2018-10-07T06:25:09.461Z,26.63
2018-10-07T06:27:37.756Z,25.87
2018-10-07T06:30:06.014Z,28.70
2018-10-07T06:32:34.320Z,23.90
2018-10-07T06:35:02.648Z,26.77
2018-10-07T06:37:30.881Z,28.37
2018-10-07T06:39:59.269Z,26.47
2018-10-07T06:42:27.684Z,24.07
2018-10-07T06:44:56.048Z,23.97
2018-10-07T06:47:24.335Z,26.17
2018-10-07T06:49:52.655Z,24.83
2018-10-07T06:52:20.907Z,21.53
2018-10-07T06:54:49.175Z,22.57
2018-10-07T06:57:17.615Z,22.37
2018-10-07T06:59:46.017Z,20.87
2018-10-07T07:02:14.149Z,21.57
2018-10-07T07:04:42.725Z,23.83
2018-10-07T07:07:11.015Z,25.53
2018-10-07T07:09:39.306Z,23.57
2018-10-07T07:12:07.652Z,23.27
2018-10-07T07:14:35.919Z,23.47
2018-10-07T07:17:04.235Z,19.73
2018-10-07T07:19:32.568Z,24.07
2018-10-07T07:22:01.025Z,20.83
2018-10-07T07:24:29.425Z,24.77
2018-10-07T07:26:57.838Z,24.33
2018-10-07T07:29:26.308Z,24.20
2018-10-07T07:31:54.594Z,20.60
2018-10-07T07:34:22.977Z,24.17
2018-10-07T07:36:51.670Z,20.77
2018-10-07T07:39:20.092Z,23.23
2018-10-07T07:41:48.417Z,20.27
2018-10-07T07:44:16.938Z,21.10
2018-10-07T07:46:45.545Z,20.13
2018-10-07T07:49:15.145Z,23.63
2018-10-07T07:51:43.496Z,20.27
2018-10-07T07:54:12.504Z,23.67
2018-10-07T07:56:40.718Z,19.67
2018-10-07T07:59:08.981Z,28.63
2018-10-07T08:01:37.249Z,22.03
2018-10-07T08:04:05.821Z,22.83
2018-10-07T08:06:34.227Z,17.27
2018-10-07T08:09:02.452Z,21.20
2018-10-07T08:11:30.803Z,18.53
2018-10-07T08:13:59.101Z,17.10
2018-10-07T08:16:27.429Z,18.30
2018-10-07T08:18:55.668Z,19.73
2018-10-07T08:21:26.329Z,15.83
2018-10-07T08:23:54.765Z,21.33
2018-10-07T08:26:23.053Z,16.77
2018-10-07T08:28:51.376Z,19.20
2018-10-07T08:31:20.680Z,19.33
2018-10-07T08:33:49.043Z,15.40
2018-10-07T08:36:18.050Z,20.17
2018-10-07T08:38:46.329Z,18.37
2018-10-07T08:41:15.402Z,16.70
2018-10-07T08:43:43.943Z,18.30
2018-10-07T08:46:12.298Z,18.13
2018-10-07T08:48:40.635Z,16.77
2018-10-07T08:51:08.918Z,15.03
2018-10-07T08:53:37.312Z,15.73
2018-10-07T08:56:05.603Z,17.37
2018-10-07T08:58:34.013Z,17.30
2018-10-07T09:01:02.340Z,17.83
2018-10-07T09:03:30.642Z,14.90
2018-10-07T09:05:58.971Z,20.60
2018-10-07T09:08:27.241Z,15.67
2018-10-07T09:10:55.516Z,17.73
2018-10-07T09:13:23.889Z,19.37
2018-10-07T09:15:52.158Z,17.03
2018-10-07T09:18:22.861Z,17.60
2018-10-07T09:20:51.329Z,15.00
2018-10-07T09:23:19.706Z,19.07
2018-10-07T09:25:48.095Z,15.17
2018-10-07T09:28:16.346Z,19.73
2018-10-07T09:30:48.175Z,17.63
2018-10-07T09:33:16.517Z,18.80
2018-10-07T09:35:44.735Z,15.43
2018-10-07T09:38:12.940Z,20.80
2018-10-07T09:40:41.258Z,15.40
2018-10-07T09:43:09.598Z,16.00
2018-10-07T09:45:37.959Z,17.00
2018-10-07T09:48:06.226Z,15.67
2018-10-07T09:50:35.374Z,16.63
2018-10-07T09:53:03.737Z,16.50
2018-10-07T09:55:32.031Z,15.10
2018-10-07T09:58:00.551Z,16.70
2018-10-07T10:00:33.204Z,13.27
2018-10-07T10:03:01.562Z,15.70
2018-10-07T10:05:29.792Z,14.97
2018-10-07T10:07:58.069Z,14.37
2018-10-07T10:10:26.641Z,14.33
2018-10-07T10:12:54.880Z,13.37
2018-10-07T10:15:23.143Z,15.07
2018-10-07T10:17:54.703Z,15.27
2018-10-07T10:20:24.536Z,13.83
2018-10-07T10:22:57.114Z,12.77
2018-10-07T10:25:29.793Z,11.43
2018-10-07T10:28:02.466Z,15.23
2018-10-07T10:30:32.147Z,13.87
2018-10-07T10:33:01.185Z,15.43
2018-10-07T10:35:35.146Z,15.33
2018-10-07T10:38:07.848Z,14.20
2018-10-07T10:40:37.437Z,12.53
2018-10-07T10:43:09.308Z,11.67
2018-10-07T10:45:40.366Z,13.77
2018-10-07T10:48:13.045Z,11.00
2018-10-07T10:50:42.734Z,12.77
2018-10-07T10:53:15.328Z,12.73
2018-10-07T10:55:48.042Z,12.63
2018-10-07T10:58:20.658Z,11.47
2018-10-07T11:00:53.957Z,13.53
2018-10-07T11:03:26.534Z,11.20
2018-10-07T11:05:56.645Z,13.17
2018-10-07T11:08:29.327Z,10.07
2018-10-07T11:13:36.211Z,13.30
2018-10-07T11:16:08.939Z,11.97
2018-10-07T11:18:41.714Z,12.33
2018-10-07T11:21:14.479Z,18.17
2018-10-07T11:23:47.114Z,12.47
2018-10-07T11:26:20.355Z,10.80
2018-10-07T11:28:49.517Z,13.50
2018-10-07T11:31:22.162Z,11.57
2018-10-07T11:33:54.942Z,9.13
2018-10-07T11:36:28.049Z,10.70
2018-10-07T11:38:59.043Z,10.17
2018-10-07T11:41:27.708Z,11.20
2018-10-07T11:43:58.554Z,13.80
2018-10-07T11:46:31.127Z,10.23
2018-10-07T11:49:03.793Z,11.23
2018-10-07T11:51:37.062Z,11.23
2018-10-07T11:54:09.200Z,10.47
2018-10-07T11:56:38.131Z,9.73
2018-10-07T11:59:06.737Z,9.87
2018-10-07T12:01:35.338Z,10.00
2018-10-07T12:04:03.867Z,9.33
2018-10-07T12:06:32.110Z,9.60
2018-10-07T12:09:00.328Z,9.30
2018-10-07T12:11:28.624Z,11.73
2018-10-07T12:13:56.834Z,8.93
2018-10-07T12:16:25.221Z,9.70
2018-10-07T12:18:53.515Z,11.83
2018-10-07T12:21:21.719Z,9.67
2018-10-07T12:23:49.934Z,13.10
2018-10-07T12:26:18.450Z,11.07
2018-10-07T12:28:46.822Z,7.43
2018-10-07T12:31:15.081Z,8.77
2018-10-07T12:33:43.290Z,9.73
2018-10-07T12:36:14.783Z,8.97
2018-10-07T12:38:43.137Z,9.63
2018-10-07T12:41:11.436Z,9.73
2018-10-07T12:43:40.425Z,12.30
2018-10-07T12:46:08.748Z,12.27
2018-10-07T12:48:37.000Z,10.47
2018-10-07T12:51:05.558Z,11.17
2018-10-07T12:53:37.636Z,12.77
2018-10-07T12:56:06.009Z,10.47
2018-10-07T12:58:34.359Z,10.90
2018-10-07T13:01:02.717Z,11.87
2018-10-07T13:03:30.958Z,11.90
2018-10-07T13:05:59.245Z,11.30
2018-10-07T13:08:27.464Z,10.70
2018-10-07T13:10:55.806Z,13.27
2018-10-07T13:13:24.123Z,10.13
2018-10-07T13:15:52.318Z,9.53
2018-10-07T13:18:20.783Z,10.63
2018-10-07T13:20:49.084Z,10.83
2018-10-07T13:23:17.331Z,7.13
2018-10-07T13:25:45.927Z,8.70
2018-10-07T13:28:14.114Z,6.47
2018-10-07T13:30:44.130Z,7.10
2018-10-07T13:33:12.490Z,7.33
2018-10-07T13:35:40.998Z,7.30
2018-10-07T13:38:09.225Z,9.07
2018-10-07T13:40:37.482Z,10.40
2018-10-07T13:43:05.852Z,8.40
2018-10-07T13:45:34.061Z,7.63
2018-10-07T13:48:02.452Z,7.83
2018-10-07T13:50:30.755Z,8.27
2018-10-07T13:52:59.012Z,10.33
2018-10-07T13:55:27.462Z,11.90
2018-10-07T13:57:55.956Z,9.50
2018-10-07T14:00:24.132Z,8.37
2018-10-07T14:02:52.389Z,8.83
2018-10-07T14:05:20.776Z,10.13
2018-10-07T14:07:48.971Z,8.00
2018-10-07T14:10:17.334Z,9.37
2018-10-07T14:12:45.571Z,10.67
2018-10-07T14:15:13.838Z,8.07
2018-10-07T14:17:42.095Z,8.23
2018-10-07T14:20:10.404Z,12.87
2018-10-07T14:22:38.666Z,7.63
2018-10-07T14:25:07.045Z,7.73
2018-10-07T14:27:35.305Z,8.63
2018-10-07T14:30:03.605Z,8.60
2018-10-07T14:32:31.844Z,9.03
2018-10-07T14:35:00.184Z,11.10
2018-10-07T14:37:28.545Z,9.63
2018-10-07T14:39:56.827Z,8.83
2018-10-07T14:42:25.256Z,11.33
2018-10-07T14:44:53.590Z,12.60
2018-10-07T14:47:21.985Z,14.97
2018-10-07T14:49:50.226Z,19.23
2018-10-07T14:52:18.505Z,14.43
2018-10-07T14:54:46.734Z,15.80
2018-10-07T14:57:15.031Z,16.20
2018-10-07T14:59:43.320Z,14.77
2018-10-07T15:02:11.729Z,20.03
2018-10-07T15:04:40.058Z,23.17
2018-10-07T15:07:08.357Z,29.07
2018-10-07T15:09:36.708Z,17.57
2018-10-07T15:12:04.960Z,19.53
2018-10-07T15:14:33.236Z,19.20
2018-10-07T15:17:04.663Z,18.53
2018-10-07T15:19:33.109Z,21.33
2018-10-07T15:22:01.500Z,18.67
2018-10-07T15:24:29.728Z,21.80
2018-10-07T15:26:58.030Z,17.17
2018-10-07T15:29:26.395Z,17.67
2018-10-07T15:31:54.845Z,17.50
2018-10-07T15:34:23.144Z,22.07
2018-10-07T15:36:51.400Z,16.03
2018-10-07T15:39:20.170Z,15.03
2018-10-07T15:41:48.459Z,15.90
2018-10-07T15:44:16.776Z,17.07
2018-10-07T15:46:44.976Z,18.17
2018-10-07T15:49:13.882Z,16.43
2018-10-07T15:51:42.126Z,15.87
2018-10-07T15:54:10.456Z,16.50
2018-10-07T15:56:38.824Z,13.57
2018-10-07T15:59:07.090Z,10.93
2018-10-07T16:01:35.325Z,10.30
2018-10-07T16:04:06.710Z,12.60
2018-10-07T16:06:35.024Z,8.30
2018-10-07T16:09:04.727Z,10.67
2018-10-07T16:11:33.015Z,10.43
2018-10-07T16:14:01.366Z,8.07
2018-10-07T16:16:30.950Z,9.10
2018-10-07T16:18:59.320Z,10.50
2018-10-07T16:21:27.602Z,8.60
2018-10-07T16:23:56.133Z,8.87
2018-10-07T16:26:24.626Z,7.60
2018-10-07T16:28:52.851Z,7.70
2018-10-07T16:31:21.084Z,7.77
2018-10-07T16:33:49.707Z,8.80
2018-10-07T16:36:17.927Z,20.47
2018-10-07T16:38:46.163Z,7.33
2018-10-07T16:41:14.705Z,5.70
2018-10-07T16:43:46.065Z,11.30
2018-10-07T16:46:14.480Z,8.63
2018-10-07T16:48:42.701Z,7.13
2018-10-07T16:51:11.115Z,8.93
2018-10-07T16:53:39.553Z,15.93
2018-10-07T16:56:07.898Z,16.53
2018-10-07T16:58:36.455Z,12.87
2018-10-07T17:01:04.719Z,9.03
2018-10-07T17:03:33.110Z,8.47
2018-10-07T17:06:01.839Z,7.87
2018-10-07T17:08:33.748Z,8.03
2018-10-07T17:11:05.692Z,7.03
2018-10-07T17:13:34.162Z,11.33
2018-10-07T17:16:02.477Z,9.57
2018-10-07T17:18:30.722Z,9.33
2018-10-07T17:20:59.131Z,5.20
2018-10-07T17:23:28.182Z,9.57
2018-10-07T17:25:56.641Z,4.97
2018-10-07T17:28:25.268Z,6.20
2018-10-07T17:30:55.608Z,4.97
2018-10-07T17:33:26.279Z,4.47
2018-10-07T17:35:56.456Z,4.30
2018-10-07T17:38:24.968Z,5.93
2018-10-07T17:40:53.360Z,4.80
2018-10-07T17:43:21.788Z,3.77
2018-10-07T17:45:50.461Z,4.00
2018-10-07T17:48:19.061Z,4.93
2018-10-07T17:50:47.339Z,4.63
2018-10-07T17:53:18.948Z,5.00
2018-10-07T17:55:47.449Z,15.43
2018-10-07T17:58:15.911Z,3.80
2018-10-07T18:00:47.357Z,3.30
2018-10-07T18:03:15.740Z,4.63
2018-10-07T18:05:44.187Z,4.03
2018-10-07T18:08:12.509Z,5.10
2018-10-07T18:10:40.896Z,4.90
2018-10-07T18:13:09.361Z,3.90
2018-10-07T18:15:37.794Z,5.53
2018-10-07T18:18:08.772Z,5.47
2018-10-07T18:20:37.225Z,5.63
2018-10-07T18:23:05.653Z,4.33
2018-10-07T18:25:33.971Z,6.57
2018-10-07T18:28:02.544Z,4.97
2018-10-07T18:30:31.004Z,5.97
2018-10-07T18:32:59.336Z,5.60
2018-10-07T18:35:27.902Z,3.67
2018-10-07T18:37:56.279Z,4.03
2018-10-07T18:40:24.617Z,5.13
2018-10-07T18:42:53.081Z,10.77
2018-10-07T18:45:24.254Z,8.03
2018-10-07T18:47:53.004Z,3.47
2018-10-07T18:50:21.364Z,4.57
2018-10-07T18:52:49.903Z,3.97
2018-10-07T18:55:21.418Z,5.67
2018-10-07T18:57:52.036Z,6.70
2018-10-07T19:00:20.489Z,5.13
2018-10-07T19:02:49.566Z,5.03
2018-10-07T19:05:17.818Z,5.37
2018-10-07T19:07:46.314Z,5.00
2018-10-07T19:10:17.645Z,7.00
2018-10-07T19:12:49.028Z,7.60
2018-10-07T19:15:19.369Z,7.43
2018-10-07T19:17:50.816Z,7.23
2018-10-07T19:20:19.505Z,5.27
2018-10-07T19:22:47.818Z,8.57
2018-10-07T19:25:16.099Z,5.27
2018-10-07T19:27:44.465Z,6.50
2018-10-07T19:30:12.848Z,4.33
2018-10-07T19:32:41.292Z,3.70
2018-10-07T19:35:11.257Z,4.13
2018-10-07T19:37:39.536Z,4.83
2018-10-07T19:40:08.953Z,3.60
2018-10-07T19:42:37.269Z,3.67
2018-10-07T19:45:05.724Z,4.37
2018-10-07T19:47:33.870Z,3.23
2018-10-07T19:50:02.325Z,3.40
2018-10-07T19:52:31.166Z,3.70
2018-10-07T19:54:59.837Z,4.27
2018-10-07T19:57:28.321Z,5.80
2018-10-07T19:59:56.862Z,6.10
2018-10-07T20:02:25.183Z,58.93
2018-10-07T20:04:53.433Z,7.10
2018-10-07T20:07:21.699Z,3.50
2018-10-07T20:09:49.922Z,4.03
2018-10-07T20:12:18.167Z,3.47
2018-10-07T20:14:46.465Z,3.20
2018-10-07T20:17:14.738Z,6.93
2018-10-07T20:19:42.982Z,5.23
2018-10-07T20:22:12.473Z,3.47
2018-10-07T20:24:40.764Z,4.13
2018-10-07T20:27:09.373Z,3.17
2018-10-07T20:29:37.596Z,3.03
2018-10-07T20:32:05.817Z,4.07
2018-10-07T20:34:36.022Z,3.53
2018-10-07T20:37:05.289Z,5.87
2018-10-07T20:39:35.410Z,8.20
2018-10-07T20:42:04.306Z,10.33
2018-10-07T20:44:33.993Z,16.40
2018-10-07T20:47:03.475Z,13.07
2018-10-07T20:49:32.188Z,12.97
2018-10-07T20:52:00.492Z,13.47
2018-10-07T20:54:31.959Z,8.80
2018-10-07T20:57:00.480Z,4.20
2018-10-07T20:59:28.702Z,5.20
2018-10-07T21:01:56.959Z,4.93
2018-10-07T21:04:25.216Z,3.73
2018-10-07T21:06:53.477Z,5.60
2018-10-07T21:09:21.844Z,4.23
2018-10-07T21:11:50.148Z,9.60
2018-10-07T21:14:18.841Z,8.80
2018-10-07T21:16:50.424Z,7.70
2018-10-07T21:19:18.700Z,11.80
2018-10-07T21:21:47.006Z,14.47
2018-10-07T21:24:15.284Z,17.63
2018-10-07T21:26:43.648Z,19.97
2018-10-07T21:29:11.911Z,20.97
2018-10-07T21:31:40.151Z,17.07
2018-10-07T21:34:08.443Z,10.17
2018-10-07T21:36:36.723Z,13.67
2018-10-07T21:39:06.477Z,7.07
2018-10-07T21:41:34.869Z,7.80
2018-10-07T21:44:03.083Z,8.47
2018-10-07T21:46:32.478Z,7.27
2018-10-07T21:49:01.428Z,8.13
2018-10-07T21:51:29.663Z,6.63
2018-10-07T21:53:57.894Z,6.47
2018-10-07T21:56:26.153Z,7.70
2018-10-07T21:58:54.390Z,8.63
2018-10-07T22:01:22.757Z,8.30
2018-10-07T22:03:50.968Z,8.70
2018-10-07T22:06:19.245Z,9.00
2018-10-07T22:08:47.516Z,8.50
2018-10-07T22:11:15.746Z,11.83
2018-10-07T22:13:43.929Z,13.27
2018-10-07T22:16:13.248Z,13.33
2018-10-07T22:18:41.646Z,34.57
2018-10-07T22:21:10.159Z,13.03
2018-10-07T22:23:38.477Z,9.63
2018-10-07T22:26:06.763Z,8.80
2018-10-07T22:28:34.953Z,11.83
2018-10-07T22:31:03.292Z,12.30
2018-10-07T22:33:31.511Z,17.97
2018-10-07T22:35:59.775Z,11.57
2018-10-07T22:38:28.005Z,8.10
2018-10-07T22:40:56.352Z,9.93
2018-10-07T22:43:24.644Z,10.87
2018-10-07T22:45:52.897Z,8.67
2018-10-07T22:48:21.102Z,9.13
2018-10-07T22:50:49.308Z,13.57
2018-10-07T22:53:17.627Z,5.73
2018-10-07T22:55:45.803Z,5.97
2018-10-07T22:58:13.974Z,6.37
2018-10-07T23:00:42.433Z,6.60
2018-10-07T23:03:10.828Z,6.80
2018-10-07T23:05:39.042Z,8.57
2018-10-07T23:08:07.278Z,6.07
2018-10-07T23:10:35.493Z,7.37
2018-10-07T23:13:03.708Z,7.70
2018-10-07T23:15:31.955Z,7.87
2018-10-07T23:18:00.158Z,5.80
2018-10-07T23:20:28.355Z,6.63
2018-10-07T23:22:56.597Z,7.87
2018-10-07T23:25:25.103Z,9.57
2018-10-07T23:27:53.417Z,6.07
2018-10-07T23:30:22.687Z,6.97
2018-10-07T23:32:51.054Z,7.80
2018-10-07T23:35:19.364Z,8.73
2018-10-07T23:37:47.663Z,6.20
2018-10-07T23:40:15.867Z,12.63
2018-10-07T23:42:44.085Z,23.87
2018-10-07T23:45:12.327Z,9.63
2018-10-07T23:47:40.639Z,6.70
2018-10-07T23:50:08.853Z,5.20
2018-10-07T23:52:37.092Z,6.80
2018-10-07T23:55:05.333Z,6.43
2018-10-07T23:57:33.549Z,16.40
